createdAt,value
2022-10-28T00:00:03.041Z,61.39
2022-10-28T00:04:03.025Z,61.58
2022-10-28T00:06:13.303Z,61.46
2022-10-28T00:09:04.553Z,61.61
2022-10-28T00:12:03.022Z,61.68
2022-10-28T00:14:03.028Z,61.6
2022-10-28T00:17:03.040Z,61.28
2022-10-28T00:19:13.373Z,61.14
2022-10-28T00:22:03.049Z,61.16
2022-10-28T00:24:03.050Z,60.94
2022-10-28T00:27:03.030Z,60.91
2022-10-28T00:29:03.070Z,60.84
2022-10-28T00:32:03.048Z,60.87
2022-10-28T00:35:03.058Z,60.74
2022-10-28T00:38:03.040Z,60.74
2022-10-28T00:40:03.069Z,61.05
2022-10-28T00:43:03.050Z,61.04
2022-10-28T00:45:03.030Z,60.99
2022-10-28T00:47:03.043Z,61.05
2022-10-28T00:49:03.054Z,61.21
2022-10-28T00:52:03.047Z,61.1
2022-10-28T00:55:03.044Z,61.32
2022-10-28T00:58:03.023Z,61.31
2022-10-28T01:00:03.055Z,61.28
2022-10-28T01:02:03.137Z,61.37
2022-10-28T01:05:03.050Z,61.54
2022-10-28T01:07:03.040Z,61.46
2022-10-28T01:10:03.068Z,61.57
2022-10-28T01:12:03.042Z,61.78
2022-10-28T01:15:03.059Z,61.78
2022-10-28T01:18:03.045Z,61.61
2022-10-28T01:20:03.090Z,61.53
2022-10-28T01:23:03.048Z,61.39
2022-10-28T01:25:03.128Z,61.61
2022-10-28T01:28:03.031Z,61.67
2022-10-28T01:30:03.066Z,61.48
2022-10-28T01:34:03.061Z,61.62
2022-10-28T01:38:03.119Z,61.73
2022-10-28T01:40:13.325Z,61.77
2022-10-28T01:42:13.350Z,62.13
2022-10-28T01:45:03.059Z,62.16
2022-10-28T01:47:03.067Z,62.29
2022-10-28T01:49:03.055Z,62.2
2022-10-28T01:51:13.308Z,61.95
2022-10-28T01:53:13.349Z,61.84
2022-10-28T01:56:03.066Z,61.83
2022-10-28T01:58:03.078Z,61.74
2022-10-28T02:00:03.060Z,61.9
2022-10-28T02:03:03.051Z,61.75
2022-10-28T02:05:03.052Z,62.28
2022-10-28T02:07:03.074Z,62.06
2022-10-28T02:09:03.099Z,61.83
2022-10-28T02:12:03.040Z,61.84
2022-10-28T02:14:03.103Z,61.82
2022-10-28T02:17:03.057Z,61.85
2022-10-28T02:20:03.067Z,61.91
2022-10-28T02:22:03.099Z,61.91
2022-10-28T02:26:03.065Z,62.22
2022-10-28T02:28:03.137Z,62.09
2022-10-28T02:31:13.342Z,62.13
2022-10-28T02:33:13.346Z,62.05
2022-10-28T02:36:03.060Z,62.1
2022-10-28T02:38:03.060Z,62.15
2022-10-28T02:40:03.170Z,61.97
2022-10-28T02:43:13.329Z,61.81
2022-10-28T02:45:13.331Z,61.91
2022-10-28T02:48:03.108Z,61.85
2022-10-28T02:51:03.081Z,61.92
2022-10-28T02:54:03.078Z,62.28
2022-10-28T02:56:03.095Z,62.16
2022-10-28T02:58:03.082Z,62.27
2022-10-28T03:01:03.082Z,62.45
2022-10-28T03:03:03.076Z,62.14
2022-10-28T03:05:03.066Z,62.02
2022-10-28T03:08:03.092Z,62.22
2022-10-28T03:11:03.047Z,62.34
2022-10-28T03:14:03.065Z,62.22
2022-10-28T03:16:03.050Z,62.22
2022-10-28T03:18:06.039Z,62.41
2022-10-28T03:21:03.069Z,62.37
2022-10-28T03:23:03.065Z,62.25
2022-10-28T03:26:03.089Z,62.27
2022-10-28T03:28:03.043Z,62.3
2022-10-28T03:30:03.081Z,62.35
2022-10-28T03:33:03.041Z,62.28
2022-10-28T03:35:03.057Z,62.31
2022-10-28T03:38:03.054Z,62.29
2022-10-28T03:40:03.065Z,62.33
2022-10-28T03:43:03.062Z,62.4
2022-10-28T03:45:03.094Z,62.16
2022-10-28T03:47:03.074Z,62.31
2022-10-28T03:50:03.077Z,62.07
2022-10-28T03:52:03.098Z,61.82
2022-10-28T03:54:03.055Z,62.03
2022-10-28T03:57:03.127Z,62.13
2022-10-28T03:59:03.063Z,62.27
2022-10-28T04:03:03.082Z,62.25
2022-10-28T04:06:03.070Z,62.22
2022-10-28T04:08:03.083Z,62.27
2022-10-28T04:11:03.054Z,62.21
2022-10-28T04:13:03.076Z,61.98
2022-10-28T04:16:03.113Z,62.42
2022-10-28T04:18:03.092Z,62.21
2022-10-28T04:20:03.093Z,62.39
2022-10-28T04:23:03.585Z,62.27
2022-10-28T04:25:03.209Z,62.35
2022-10-28T04:28:03.073Z,62.38
2022-10-28T04:30:03.093Z,62.43
2022-10-28T04:33:03.084Z,62.3
2022-10-28T04:36:03.318Z,62.33
2022-10-28T04:39:03.072Z,62.33
2022-10-28T04:41:03.088Z,62.23
2022-10-28T04:43:03.147Z,62.43
2022-10-28T04:45:03.092Z,62.73
2022-10-28T04:48:03.069Z,62.7
2022-10-28T04:50:03.081Z,62.63
2022-10-28T04:53:13.399Z,62.64
2022-10-28T04:56:03.099Z,62.6
2022-10-28T04:59:03.084Z,62.46
2022-10-28T05:03:03.353Z,62.19
2022-10-28T05:06:03.097Z,62.19
2022-10-28T05:09:03.079Z,62.06
2022-10-28T05:11:03.108Z,62.02
2022-10-28T05:13:03.133Z,61.97
2022-10-28T05:16:03.119Z,62
2022-10-28T05:19:03.147Z,62.03
2022-10-28T05:21:13.364Z,61.98
2022-10-28T05:23:13.381Z,61.98
2022-10-28T05:26:03.107Z,61.96
2022-10-28T05:28:03.122Z,62.01
2022-10-28T05:30:03.108Z,62.04
2022-10-28T05:33:03.128Z,62.07
2022-10-28T05:36:03.111Z,61.96
2022-10-28T05:39:03.129Z,62.3
2022-10-28T05:42:03.121Z,62.23
2022-10-28T05:45:03.113Z,62.2
2022-10-28T05:48:03.131Z,62.25
2022-10-28T05:50:03.102Z,62.16
2022-10-28T05:53:03.109Z,62.35
2022-10-28T05:56:03.089Z,62.18
2022-10-28T05:59:03.119Z,62.25
2022-10-28T06:01:03.129Z,62.4
2022-10-28T06:04:03.141Z,62.3
2022-10-28T06:07:03.111Z,62.49
2022-10-28T06:10:03.081Z,62.43
2022-10-28T06:13:01.577Z,62.23
2022-10-28T06:16:01.577Z,62.5
2022-10-28T06:18:01.593Z,62.27
2022-10-28T06:21:01.612Z,62.37
2022-10-28T06:24:01.611Z,62.34
2022-10-28T06:26:01.608Z,62.45
2022-10-28T06:29:01.594Z,62.21
2022-10-28T06:32:01.598Z,62.36
2022-10-28T06:35:01.584Z,62.54
2022-10-28T06:37:01.609Z,62.53
2022-10-28T06:39:01.602Z,62.39
2022-10-28T06:42:01.585Z,62.46
2022-10-28T06:45:01.638Z,62.79
2022-10-28T06:48:13.417Z,62.89
2022-10-28T06:51:03.129Z,63
2022-10-28T06:53:03.144Z,62.86
2022-10-28T06:56:03.140Z,62.84
2022-10-28T06:59:03.186Z,62.79
2022-10-28T07:02:03.253Z,62.82
2022-10-28T07:05:03.127Z,62.74
2022-10-28T07:07:03.161Z,62.78
2022-10-28T07:10:03.116Z,62.76
2022-10-28T07:12:04.999Z,63.12
2022-10-28T07:15:03.137Z,63.05
2022-10-28T07:18:03.112Z,62.74
2022-10-28T07:20:23.741Z,63.12
2022-10-28T07:22:25.713Z,62.97
2022-10-28T07:25:03.155Z,63.39
2022-10-28T07:28:03.134Z,63.22
2022-10-28T07:31:03.204Z,63.1
2022-10-28T07:34:03.137Z,63.21
2022-10-28T07:36:03.131Z,63.22
2022-10-28T07:38:03.153Z,63.31
2022-10-28T07:40:03.134Z,63.04
2022-10-28T07:43:03.120Z,63.03
2022-10-28T07:46:03.128Z,62.85
2022-10-28T07:48:03.128Z,62.99
2022-10-28T07:51:03.169Z,63.1
2022-10-28T07:54:03.199Z,62.96
2022-10-28T07:57:03.146Z,63.29
2022-10-28T07:59:03.163Z,63.25
2022-10-28T08:01:03.233Z,63.22
2022-10-28T08:04:03.194Z,63.38
2022-10-28T08:07:03.164Z,63.78
2022-10-28T08:10:03.130Z,63.82
2022-10-28T08:12:03.161Z,63.73
2022-10-28T08:14:03.190Z,63.59
2022-10-28T08:17:03.126Z,63.35
2022-10-28T08:20:03.101Z,63.06
2022-10-28T08:22:13.431Z,63.4
2022-10-28T08:25:03.150Z,63.36
2022-10-28T08:28:03.143Z,63.54
2022-10-28T08:32:03.150Z,63.46
2022-10-28T08:34:13.465Z,63.67
2022-10-28T08:36:23.672Z,63.84
2022-10-28T08:39:03.158Z,63.59
2022-10-28T08:41:03.143Z,63.89
2022-10-28T08:44:03.139Z,64.25
2022-10-28T08:46:13.379Z,64.39
2022-10-28T08:48:13.394Z,64.62
2022-10-28T08:51:03.151Z,64.65
2022-10-28T08:54:03.166Z,65.06
2022-10-28T08:56:03.196Z,64.82
2022-10-28T08:58:03.139Z,64.91
2022-10-28T09:01:03.212Z,65.05
2022-10-28T09:03:03.151Z,65.31
2022-10-28T09:06:03.165Z,65.2
2022-10-28T09:08:03.155Z,65.05
2022-10-28T09:10:03.135Z,64.97
2022-10-28T09:13:03.184Z,65.4
2022-10-28T09:16:03.156Z,65.04
2022-10-28T09:18:03.137Z,65.25
2022-10-28T09:21:03.143Z,65.54
2022-10-28T09:23:03.179Z,65.47
2022-10-28T09:25:03.149Z,65.45
2022-10-28T09:28:03.219Z,64.4
2022-10-28T09:31:03.120Z,65.18
2022-10-28T09:33:03.171Z,65.83
2022-10-28T09:36:03.153Z,64.61
2022-10-28T09:38:03.149Z,65.4
2022-10-28T09:40:03.167Z,65.44
2022-10-28T09:43:03.176Z,66.22
2022-10-28T09:45:03.223Z,66.36
2022-10-28T09:48:03.176Z,66.21
2022-10-28T09:50:13.430Z,65.72
2022-10-28T09:53:03.157Z,66.06
2022-10-28T09:56:03.188Z,66.4
2022-10-28T09:58:03.137Z,65.96
2022-10-28T10:00:03.139Z,65.47
2022-10-28T10:02:03.269Z,65.18
2022-10-28T10:04:03.165Z,65.78
2022-10-28T10:06:13.449Z,65.56
2022-10-28T10:08:13.479Z,66.79
2022-10-28T10:12:03.151Z,66.22
2022-10-28T10:14:03.160Z,64.24
2022-10-28T10:17:14.470Z,64.71
2022-10-28T10:20:13.457Z,63.7
2022-10-28T10:23:03.160Z,66.04
2022-10-28T10:26:05.514Z,63.7
2022-10-28T10:28:03.155Z,64.64
2022-10-28T10:30:03.140Z,62.59
2022-10-28T10:33:03.203Z,63.84
2022-10-28T10:36:03.156Z,63.8
2022-10-28T10:38:03.168Z,63.67
2022-10-28T10:41:03.160Z,62.58
2022-10-28T10:43:13.515Z,62.4
2022-10-28T10:46:03.174Z,61.22
2022-10-28T10:48:03.177Z,61.44
2022-10-28T10:50:03.152Z,61.44
2022-10-28T10:53:03.219Z,61.15
2022-10-28T10:56:03.173Z,62.68
2022-10-28T10:59:03.160Z,61.12
2022-10-28T11:01:03.185Z,60.59
2022-10-28T11:04:03.178Z,59.31
2022-10-28T11:06:23.352Z,60.45
2022-10-28T11:08:13.451Z,60.64
2022-10-28T11:11:03.160Z,58.93
2022-10-28T11:13:03.180Z,58.5
2022-10-28T11:16:03.200Z,58.94
2022-10-28T11:19:03.135Z,58.44
2022-10-28T11:21:03.148Z,57.88
2022-10-28T11:24:03.175Z,58.69
2022-10-28T11:27:03.135Z,56.8
2022-10-28T11:29:03.151Z,56.77
2022-10-28T11:31:03.237Z,58.09
2022-10-28T11:34:03.170Z,56.62
2022-10-28T11:36:03.194Z,56.43
2022-10-28T11:39:03.175Z,56.29
2022-10-28T11:41:03.149Z,56.33
2022-10-28T11:43:03.184Z,55.73
2022-10-28T11:46:03.187Z,55.32
2022-10-28T11:48:03.179Z,55.29
2022-10-28T11:51:03.160Z,55.09
2022-10-28T11:54:03.172Z,55.59
2022-10-28T11:57:03.154Z,54.22
2022-10-28T11:59:03.158Z,53.83
2022-10-28T12:02:03.383Z,54.11
2022-10-28T12:05:03.157Z,53.59
2022-10-28T12:08:03.173Z,54.02
2022-10-28T12:11:03.157Z,53.78
2022-10-28T12:13:03.157Z,53.4
2022-10-28T12:16:03.166Z,53.15
2022-10-28T12:18:05.916Z,52.95
2022-10-28T12:20:13.444Z,52.31
2022-10-28T12:23:03.164Z,51.84
2022-10-28T12:26:03.156Z,51.83
2022-10-28T12:28:03.262Z,51.53
2022-10-28T12:31:03.184Z,51.68
2022-10-28T12:33:03.193Z,51.48
2022-10-28T12:36:03.192Z,51.65
2022-10-28T12:38:03.278Z,51.59
2022-10-28T12:41:03.208Z,51.45
2022-10-28T12:44:03.195Z,51.08
2022-10-28T12:47:03.186Z,51.38
2022-10-28T12:49:03.186Z,51.19
2022-10-28T12:52:03.197Z,50.91
2022-10-28T12:55:03.223Z,53.08
2022-10-28T12:57:03.212Z,51.39
2022-10-28T12:59:13.471Z,51.28
2022-10-28T13:03:03.211Z,50.45
2022-10-28T13:07:03.230Z,49.3
2022-10-28T13:09:13.453Z,49.72
2022-10-28T13:12:03.200Z,49.63
2022-10-28T13:14:06.370Z,49.64
2022-10-28T13:16:03.204Z,49.76
2022-10-28T13:19:03.178Z,49.69
2022-10-28T13:21:03.239Z,49.85
2022-10-28T13:24:03.204Z,49.5
2022-10-28T13:26:03.243Z,49.41
2022-10-28T13:29:03.179Z,49.17
2022-10-28T13:32:03.217Z,48.9
2022-10-28T13:34:13.486Z,48.67
2022-10-28T13:37:03.184Z,48.86
2022-10-28T13:39:03.228Z,48.61
2022-10-28T13:42:13.484Z,48.59
2022-10-28T13:45:04.250Z,48.63
2022-10-28T13:47:03.247Z,48.58
2022-10-28T13:51:03.216Z,48.53
2022-10-28T13:53:13.464Z,48.58
2022-10-28T13:56:03.193Z,48
2022-10-28T13:59:03.196Z,47.72
2022-10-28T14:03:03.279Z,47.36
2022-10-28T14:05:13.489Z,47.31
2022-10-28T14:08:03.231Z,47.5
2022-10-28T14:10:03.315Z,47.03
2022-10-28T14:16:14.358Z,47.8
2022-10-28T14:20:03.218Z,47.89
2022-10-28T14:24:03.217Z,47.9
2022-10-28T14:26:03.230Z,48.11
2022-10-28T14:28:13.524Z,48.01
2022-10-28T14:31:03.207Z,48.27
2022-10-28T14:33:03.209Z,48.2
2022-10-28T14:35:03.224Z,48.62
2022-10-28T14:38:13.462Z,48.73
2022-10-28T14:40:13.479Z,48.96
2022-10-28T14:43:03.192Z,48.9
2022-10-28T14:45:03.217Z,49.57
2022-10-28T14:47:03.301Z,49.65
2022-10-28T14:49:13.932Z,50.03
2022-10-28T14:51:13.510Z,49.93
2022-10-28T14:55:03.254Z,49.69
2022-10-28T14:59:03.265Z,50.83
2022-10-28T15:01:13.571Z,50.62
2022-10-28T15:04:03.234Z,50.51
2022-10-28T15:07:03.211Z,50.61
2022-10-28T15:09:04.251Z,50.86
2022-10-28T15:11:13.534Z,51.29
2022-10-28T15:14:03.248Z,51.48
2022-10-28T15:16:03.811Z,52.54
2022-10-28T15:20:03.248Z,52.09
2022-10-28T15:22:13.484Z,52.26
2022-10-28T15:25:04.322Z,52.6
2022-10-28T15:28:03.231Z,53.21
2022-10-28T15:32:03.310Z,53.1
2022-10-28T15:35:13.499Z,53.29
2022-10-28T15:37:13.496Z,53.28
2022-10-28T15:40:05.340Z,53.53
2022-10-28T15:43:03.367Z,53.64
2022-10-28T15:45:23.801Z,53.76
2022-10-28T15:47:23.809Z,53.87
2022-10-28T15:51:03.216Z,54.09
2022-10-28T15:53:03.306Z,55.01
2022-10-28T15:56:07.487Z,54.44
2022-10-28T15:58:16.537Z,54.96
2022-10-28T16:00:13.535Z,54.66
2022-10-28T16:04:03.266Z,56
2022-10-28T16:07:03.261Z,55.04
2022-10-28T16:09:13.520Z,56.04
2022-10-28T16:12:03.243Z,55.78
2022-10-28T16:15:03.263Z,56.19
2022-10-28T16:17:10.504Z,56.06
2022-10-28T16:19:03.249Z,56.44
2022-10-28T16:21:23.855Z,56.3
2022-10-28T16:24:13.541Z,56.48
2022-10-28T16:27:03.279Z,56.79
2022-10-28T16:31:03.266Z,56.93
2022-10-28T16:33:13.528Z,56.65
2022-10-28T16:36:03.310Z,56.77
2022-10-28T16:39:03.287Z,57.22
2022-10-28T16:41:10.272Z,57.28
2022-10-28T16:43:13.561Z,57.04
2022-10-28T16:46:13.529Z,57.52
2022-10-28T16:49:03.279Z,57.68
2022-10-28T16:51:03.281Z,57.54
2022-10-28T16:54:03.243Z,57.64
2022-10-28T16:56:03.279Z,57.79
2022-10-28T16:59:03.289Z,57.88
2022-10-28T17:02:03.363Z,58.1
2022-10-28T17:05:03.272Z,57.97
2022-10-28T17:07:03.316Z,57.69
2022-10-28T17:10:03.243Z,57.95
2022-10-28T17:13:03.318Z,57.73
2022-10-28T17:16:03.240Z,57.56
2022-10-28T17:18:03.279Z,57.53
2022-10-28T17:20:03.259Z,57.47
2022-10-28T17:23:03.329Z,57.38
2022-10-28T17:26:03.243Z,57.35
2022-10-28T17:28:03.352Z,57.34
2022-10-28T17:31:03.282Z,57.38
2022-10-28T17:33:03.294Z,57.44
2022-10-28T17:36:03.491Z,57.4
2022-10-28T17:38:03.301Z,57.4
2022-10-28T17:40:03.330Z,57.45
2022-10-28T17:43:03.288Z,57.68
2022-10-28T17:46:03.272Z,57.59
2022-10-28T17:48:13.595Z,57.57
2022-10-28T17:51:03.409Z,57.65
2022-10-28T17:54:03.255Z,57.27
2022-10-28T17:56:03.418Z,57.51
2022-10-28T17:59:03.283Z,57.33
2022-10-28T18:02:03.442Z,57.3
2022-10-28T18:04:03.318Z,57.4
2022-10-28T18:07:03.325Z,57.55
2022-10-28T18:10:03.275Z,57.64
2022-10-28T18:12:03.346Z,57.74
2022-10-28T18:15:03.262Z,57.64
2022-10-28T18:18:03.337Z,57.79
2022-10-28T18:21:03.270Z,58
2022-10-28T18:23:03.305Z,58.04
2022-10-28T18:25:03.275Z,57.8
2022-10-28T18:28:03.275Z,57.93
2022-10-28T18:30:03.274Z,58.01
2022-10-28T18:33:03.303Z,57.82
2022-10-28T18:35:03.250Z,57.63
2022-10-28T18:37:03.254Z,57.72
2022-10-28T18:40:03.264Z,58.01
2022-10-28T18:42:03.279Z,57.78
2022-10-28T18:44:03.308Z,57.97
2022-10-28T18:47:03.300Z,57.87
2022-10-28T18:50:03.279Z,57.93
2022-10-28T18:53:03.277Z,57.77
2022-10-28T18:55:03.298Z,57.78
2022-10-28T18:58:03.267Z,57.73
2022-10-28T19:00:19.536Z,57.54
2022-10-28T19:02:03.433Z,57.76
2022-10-28T19:05:03.285Z,57.67
2022-10-28T19:08:03.284Z,57.9
2022-10-28T19:10:03.285Z,57.71
2022-10-28T19:13:03.281Z,57.41
2022-10-28T19:17:03.295Z,57.54
2022-10-28T19:21:04.429Z,57.16
2022-10-28T19:23:13.594Z,56.68
2022-10-28T19:26:03.293Z,56.81
2022-10-28T19:28:25.645Z,56.59
2022-10-28T19:31:13.581Z,56.96
2022-10-28T19:34:03.292Z,56.91
2022-10-28T19:36:03.373Z,56.94
2022-10-28T19:39:03.304Z,57.12
2022-10-28T19:41:14.005Z,56.99
2022-10-28T19:44:03.305Z,56.97
2022-10-28T19:46:03.321Z,57.2
2022-10-28T19:49:03.337Z,57.21
2022-10-28T19:51:03.336Z,57.35
2022-10-28T19:54:03.311Z,57.44
2022-10-28T19:57:03.357Z,57.58
2022-10-28T19:59:03.319Z,57.49
2022-10-28T20:02:03.844Z,57.33
2022-10-28T20:05:03.308Z,57.33
2022-10-28T20:08:03.391Z,57.64
2022-10-28T20:10:03.330Z,57.39
2022-10-28T20:13:03.319Z,57.55
2022-10-28T20:15:03.316Z,57.33
2022-10-28T20:18:03.288Z,57.44
2022-10-28T20:20:03.276Z,57.13
2022-10-28T20:23:03.329Z,57.11
2022-10-28T20:26:03.299Z,57.68
2022-10-28T20:29:03.323Z,57.44
2022-10-28T20:31:03.340Z,57.65
2022-10-28T20:34:03.325Z,57.55
2022-10-28T20:37:13.636Z,57.87
2022-10-28T20:40:06.214Z,57.41
2022-10-28T20:43:03.307Z,57.6
2022-10-28T20:45:03.318Z,57.54
2022-10-28T20:47:03.315Z,57.24
2022-10-28T20:49:13.579Z,57.71
2022-10-28T20:51:23.883Z,57.44
2022-10-28T20:54:03.307Z,57.5
2022-10-28T20:57:03.347Z,57.57
2022-10-28T21:00:03.305Z,57.47
2022-10-28T21:03:03.485Z,57.26
2022-10-28T21:05:03.313Z,57.02
2022-10-28T21:07:03.416Z,57.32
2022-10-28T21:09:03.317Z,57.31
2022-10-28T21:12:03.364Z,57.01
2022-10-28T21:14:03.317Z,57.16
2022-10-28T21:17:03.349Z,57.12
2022-10-28T21:20:03.415Z,57.3
2022-10-28T21:23:03.462Z,57.07
2022-10-28T21:25:03.333Z,57.19
2022-10-28T21:27:03.333Z,57.31
2022-10-28T21:30:03.373Z,57.43
2022-10-28T21:32:03.337Z,57.17
2022-10-28T21:34:04.512Z,57.08
2022-10-28T21:36:03.357Z,57.34
2022-10-28T21:38:03.333Z,57.24
2022-10-28T21:41:03.419Z,57.26
2022-10-28T21:43:03.333Z,57.11
2022-10-28T21:45:03.410Z,57.12
2022-10-28T21:47:03.320Z,57.14
2022-10-28T21:50:03.430Z,57.61
2022-10-28T21:52:03.438Z,57.8
2022-10-28T21:55:06.091Z,57.2
2022-10-28T21:57:03.379Z,57.23
2022-10-28T22:00:03.323Z,57.28
2022-10-28T22:02:03.575Z,57.1
2022-10-28T22:05:03.440Z,57.02
2022-10-28T22:07:03.395Z,57.38
2022-10-28T22:10:03.339Z,57.1
2022-10-28T22:13:03.415Z,57.52
2022-10-28T22:15:03.336Z,57.39
2022-10-28T22:18:03.432Z,57.59
2022-10-28T22:21:03.330Z,57.72
2022-10-28T22:23:03.420Z,57.37
2022-10-28T22:25:04.862Z,57.65
2022-10-28T22:27:03.346Z,57.41
2022-10-28T22:30:03.589Z,57.42
2022-10-28T22:32:03.354Z,57.41
2022-10-28T22:35:03.507Z,57.33
2022-10-28T22:38:03.352Z,57.23
2022-10-28T22:41:03.303Z,57.17
2022-10-28T22:43:03.342Z,57.04
2022-10-28T22:46:03.381Z,57.75
2022-10-28T22:49:03.573Z,57.16
2022-10-28T22:52:03.372Z,57.3
2022-10-28T22:55:03.333Z,57.13
2022-10-28T22:57:03.522Z,57.21
2022-10-28T22:59:03.366Z,57.27
2022-10-28T23:01:03.366Z,57.39
2022-10-28T23:03:03.501Z,57.24
2022-10-28T23:06:03.344Z,57.45
2022-10-28T23:08:03.519Z,57.6
2022-10-28T23:11:03.479Z,57.57
2022-10-28T23:15:03.307Z,57.82
2022-10-28T23:17:03.416Z,57.95
2022-10-28T23:19:03.345Z,57.67
2022-10-28T23:23:03.364Z,57.77
2022-10-28T23:25:13.653Z,57.87
2022-10-28T23:28:34.259Z,57.73
2022-10-28T23:31:13.745Z,57.83
2022-10-28T23:33:13.644Z,57.72
2022-10-28T23:35:13.659Z,57.84
2022-10-28T23:38:13.846Z,57.9
2022-10-28T23:41:13.618Z,57.93
2022-10-28T23:43:13.842Z,57.88
2022-10-28T23:45:13.647Z,57.94
2022-10-28T23:47:13.659Z,58.07
2022-10-28T23:50:13.751Z,58.13
2022-10-28T23:52:13.655Z,58.2
2022-10-28T23:55:13.910Z,58.54
2022-10-28T23:58:13.634Z,58.84
